sensor_id;sensor_type;location;lat;lon;timestamp;P1;durP1;ratioP1;P2;durP2;ratioP2
47053;SDS011;32811;52.382;5.270;2023-06-14T00:02:19;3.22;;;1.50;;
47053;SDS011;32811;52.382;5.270;2023-06-14T00:04:45;6.25;;;1.40;;
47053;SDS011;32811;52.382;5.270;2023-06-14T00:07:14;6.68;;;1.98;;
47053;SDS011;32811;52.382;5.270;2023-06-14T00:09:42;7.03;;;2.38;;
47053;SDS011;32811;52.382;5.270;2023-06-14T00:12:09;10.35;;;2.75;;
47053;SDS011;32811;52.382;5.270;2023-06-14T00:14:36;5.90;;;1.67;;
47053;SDS011;32811;52.382;5.270;2023-06-14T00:17:02;4.13;;;1.60;;
47053;SDS011;32811;52.382;5.270;2023-06-14T00:19:29;7.90;;;1.48;;
47053;SDS011;32811;52.382;5.270;2023-06-14T00:21:59;6.53;;;2.10;;
47053;SDS011;32811;52.382;5.270;2023-06-14T00:24:26;6.88;;;1.63;;
47053;SDS011;32811;52.382;5.270;2023-06-14T00:26:52;3.92;;;1.27;;
47053;SDS011;32811;52.382;5.270;2023-06-14T00:29:19;4.05;;;1.35;;
47053;SDS011;32811;52.382;5.270;2023-06-14T00:31:46;6.38;;;1.70;;
47053;SDS011;32811;52.382;5.270;2023-06-14T00:34:12;5.20;;;1.70;;
47053;SDS011;32811;52.382;5.270;2023-06-14T00:36:39;2.95;;;1.48;;
47053;SDS011;32811;52.382;5.270;2023-06-14T00:39:05;9.40;;;3.03;;
47053;SDS011;32811;52.382;5.270;2023-06-14T00:41:32;10.30;;;1.73;;
47053;SDS011;32811;52.382;5.270;2023-06-14T00:43:58;4.70;;;1.30;;
47053;SDS011;32811;52.382;5.270;2023-06-14T00:46:26;5.55;;;1.30;;
47053;SDS011;32811;52.382;5.270;2023-06-14T00:48:53;2.40;;;1.40;;
47053;SDS011;32811;52.382;5.270;2023-06-14T00:51:22;13.05;;;1.88;;
47053;SDS011;32811;52.382;5.270;2023-06-14T00:53:48;10.25;;;2.75;;
47053;SDS011;32811;52.382;5.270;2023-06-14T00:56:16;3.53;;;1.45;;
47053;SDS011;32811;52.382;5.270;2023-06-14T00:58:42;5.82;;;1.42;;
47053;SDS011;32811;52.382;5.270;2023-06-14T01:01:09;4.10;;;1.35;;
47053;SDS011;32811;52.382;5.270;2023-06-14T01:03:36;9.20;;;1.77;;
47053;SDS011;32811;52.382;5.270;2023-06-14T01:06:54;3.05;;;1.38;;
47053;SDS011;32811;52.382;5.270;2023-06-14T01:14:25;7.28;;;1.85;;
47053;SDS011;32811;52.382;5.270;2023-06-14T01:16:53;7.35;;;2.20;;
47053;SDS011;32811;52.382;5.270;2023-06-14T01:19:22;8.68;;;1.98;;
47053;SDS011;32811;52.382;5.270;2023-06-14T01:21:52;3.42;;;1.50;;
47053;SDS011;32811;52.382;5.270;2023-06-14T01:24:19;7.18;;;1.70;;
47053;SDS011;32811;52.382;5.270;2023-06-14T01:26:55;8.20;;;1.58;;
47053;SDS011;32811;52.382;5.270;2023-06-14T01:29:22;6.60;;;1.30;;
47053;SDS011;32811;52.382;5.270;2023-06-14T01:31:51;8.85;;;1.45;;
47053;SDS011;32811;52.382;5.270;2023-06-14T01:34:20;2.83;;;1.40;;
47053;SDS011;32811;52.382;5.270;2023-06-14T01:36:47;7.40;;;1.50;;
47053;SDS011;32811;52.382;5.270;2023-06-14T01:39:16;8.98;;;1.60;;
47053;SDS011;32811;52.382;5.270;2023-06-14T01:41:44;5.10;;;1.02;;
47053;SDS011;32811;52.382;5.270;2023-06-14T01:44:13;4.70;;;1.48;;
47053;SDS011;32811;52.382;5.270;2023-06-14T01:46:42;5.03;;;1.55;;
47053;SDS011;32811;52.382;5.270;2023-06-14T01:49:10;8.20;;;2.00;;
47053;SDS011;32811;52.382;5.270;2023-06-14T01:51:37;5.22;;;1.55;;
47053;SDS011;32811;52.382;5.270;2023-06-14T01:54:04;7.97;;;1.75;;
47053;SDS011;32811;52.382;5.270;2023-06-14T01:56:30;4.00;;;1.70;;
47053;SDS011;32811;52.382;5.270;2023-06-14T01:58:58;3.97;;;1.42;;
47053;SDS011;32811;52.382;5.270;2023-06-14T02:01:25;4.80;;;1.40;;
47053;SDS011;32811;52.382;5.270;2023-06-14T02:03:53;3.17;;;1.15;;
47053;SDS011;32811;52.382;5.270;2023-06-14T02:06:20;8.02;;;1.63;;
47053;SDS011;32811;52.382;5.270;2023-06-14T02:08:46;4.35;;;1.40;;
47053;SDS011;32811;52.382;5.270;2023-06-14T02:11:13;4.45;;;1.63;;
47053;SDS011;32811;52.382;5.270;2023-06-14T02:13:39;5.18;;;1.48;;
47053;SDS011;32811;52.382;5.270;2023-06-14T02:16:06;7.38;;;2.45;;
47053;SDS011;32811;52.382;5.270;2023-06-14T02:18:33;3.08;;;1.33;;
47053;SDS011;32811;52.382;5.270;2023-06-14T02:21:00;2.55;;;1.33;;
47053;SDS011;32811;52.382;5.270;2023-06-14T02:23:26;5.40;;;2.10;;
47053;SDS011;32811;52.382;5.270;2023-06-14T02:25:53;8.25;;;1.40;;
47053;SDS011;32811;52.382;5.270;2023-06-14T02:28:20;2.28;;;1.35;;
47053;SDS011;32811;52.382;5.270;2023-06-14T02:30:46;3.03;;;1.60;;
47053;SDS011;32811;52.382;5.270;2023-06-14T02:33:13;4.97;;;1.50;;
47053;SDS011;32811;52.382;5.270;2023-06-14T02:35:40;10.57;;;1.85;;
47053;SDS011;32811;52.382;5.270;2023-06-14T02:38:07;3.50;;;1.17;;
47053;SDS011;32811;52.382;5.270;2023-06-14T02:40:34;6.07;;;1.40;;
47053;SDS011;32811;52.382;5.270;2023-06-14T02:43:00;3.20;;;1.55;;
47053;SDS011;32811;52.382;5.270;2023-06-14T02:45:28;5.07;;;1.77;;
47053;SDS011;32811;52.382;5.270;2023-06-14T02:47:54;6.68;;;1.50;;
47053;SDS011;32811;52.382;5.270;2023-06-14T02:50:22;3.13;;;1.33;;
47053;SDS011;32811;52.382;5.270;2023-06-14T02:52:50;4.22;;;1.27;;
47053;SDS011;32811;52.382;5.270;2023-06-14T02:55:16;5.80;;;1.50;;
47053;SDS011;32811;52.382;5.270;2023-06-14T02:57:43;4.95;;;1.17;;
47053;SDS011;32811;52.382;5.270;2023-06-14T03:00:10;3.63;;;1.60;;
47053;SDS011;32811;52.382;5.270;2023-06-14T03:02:40;2.85;;;1.20;;
47053;SDS011;32811;52.382;5.270;2023-06-14T03:05:09;2.63;;;1.48;;
47053;SDS011;32811;52.382;5.270;2023-06-14T03:07:36;8.77;;;1.67;;
47053;SDS011;32811;52.382;5.270;2023-06-14T03:10:08;4.30;;;2.05;;
47053;SDS011;32811;52.382;5.270;2023-06-14T03:12:35;4.50;;;1.35;;
47053;SDS011;32811;52.382;5.270;2023-06-14T03:15:03;3.00;;;1.13;;
47053;SDS011;32811;52.382;5.270;2023-06-14T03:17:30;2.15;;;1.23;;
47053;SDS011;32811;52.382;5.270;2023-06-14T03:20:00;11.23;;;2.17;;
47053;SDS011;32811;52.382;5.270;2023-06-14T03:22:26;6.57;;;1.67;;
47053;SDS011;32811;52.382;5.270;2023-06-14T03:24:54;3.88;;;1.60;;
47053;SDS011;32811;52.382;5.270;2023-06-14T03:27:21;5.18;;;1.33;;
47053;SDS011;32811;52.382;5.270;2023-06-14T03:29:48;3.30;;;1.77;;
47053;SDS011;32811;52.382;5.270;2023-06-14T03:32:14;3.42;;;1.65;;
47053;SDS011;32811;52.382;5.270;2023-06-14T03:34:41;4.60;;;1.20;;
47053;SDS011;32811;52.382;5.270;2023-06-14T03:37:08;3.30;;;1.50;;
47053;SDS011;32811;52.382;5.270;2023-06-14T03:39:35;4.70;;;1.50;;
47053;SDS011;32811;52.382;5.270;2023-06-14T03:42:03;8.52;;;1.80;;
47053;SDS011;32811;52.382;5.270;2023-06-14T03:44:30;6.50;;;1.73;;
47053;SDS011;32811;52.382;5.270;2023-06-14T03:46:56;4.65;;;1.40;;
47053;SDS011;32811;52.382;5.270;2023-06-14T03:49:23;3.97;;;1.55;;
47053;SDS011;32811;52.382;5.270;2023-06-14T03:51:50;4.65;;;1.20;;
47053;SDS011;32811;52.382;5.270;2023-06-14T03:54:18;11.70;;;1.83;;
47053;SDS011;32811;52.382;5.270;2023-06-14T03:57:04;2.67;;;1.10;;
47053;SDS011;32811;52.382;5.270;2023-06-14T03:59:32;5.07;;;1.58;;
47053;SDS011;32811;52.382;5.270;2023-06-14T04:01:58;2.40;;;1.30;;
47053;SDS011;32811;52.382;5.270;2023-06-14T04:04:25;4.93;;;1.25;;
47053;SDS011;32811;52.382;5.270;2023-06-14T04:06:55;5.63;;;1.48;;
47053;SDS011;32811;52.382;5.270;2023-06-14T04:09:27;4.60;;;1.38;;
47053;SDS011;32811;52.382;5.270;2023-06-14T04:11:53;5.20;;;1.20;;
47053;SDS011;32811;52.382;5.270;2023-06-14T04:14:20;2.40;;;1.38;;
47053;SDS011;32811;52.382;5.270;2023-06-14T04:16:47;4.78;;;1.60;;
47053;SDS011;32811;52.382;5.270;2023-06-14T04:19:15;6.57;;;1.10;;
47053;SDS011;32811;52.382;5.270;2023-06-14T04:21:42;4.43;;;1.33;;
47053;SDS011;32811;52.382;5.270;2023-06-14T04:24:09;5.68;;;1.50;;
47053;SDS011;32811;52.382;5.270;2023-06-14T04:26:39;8.15;;;1.45;;
47053;SDS011;32811;52.382;5.270;2023-06-14T04:29:07;4.18;;;1.20;;
47053;SDS011;32811;52.382;5.270;2023-06-14T04:31:34;4.25;;;1.30;;
47053;SDS011;32811;52.382;5.270;2023-06-14T04:34:04;3.55;;;1.95;;
47053;SDS011;32811;52.382;5.270;2023-06-14T04:36:35;6.30;;;1.40;;
47053;SDS011;32811;52.382;5.270;2023-06-14T04:39:04;4.30;;;1.50;;
47053;SDS011;32811;52.382;5.270;2023-06-14T04:41:31;3.72;;;1.55;;
47053;SDS011;32811;52.382;5.270;2023-06-14T04:43:59;5.85;;;1.58;;
47053;SDS011;32811;52.382;5.270;2023-06-14T04:46:28;4.75;;;1.30;;
47053;SDS011;32811;52.382;5.270;2023-06-14T04:48:55;4.55;;;1.88;;
47053;SDS011;32811;52.382;5.270;2023-06-14T04:51:23;4.45;;;1.88;;
47053;SDS011;32811;52.382;5.270;2023-06-14T04:53:56;2.38;;;1.40;;
47053;SDS011;32811;52.382;5.270;2023-06-14T04:56:25;7.57;;;1.30;;
47053;SDS011;32811;52.382;5.270;2023-06-14T04:58:52;4.43;;;1.20;;
47053;SDS011;32811;52.382;5.270;2023-06-14T05:01:22;6.30;;;1.20;;
47053;SDS011;32811;52.382;5.270;2023-06-14T05:03:49;4.35;;;1.30;;
47053;SDS011;32811;52.382;5.270;2023-06-14T05:06:16;6.18;;;1.10;;
47053;SDS011;32811;52.382;5.270;2023-06-14T05:08:43;3.45;;;1.17;;
47053;SDS011;32811;52.382;5.270;2023-06-14T05:11:10;6.63;;;1.38;;
47053;SDS011;32811;52.382;5.270;2023-06-14T05:13:36;3.10;;;1.50;;
47053;SDS011;32811;52.382;5.270;2023-06-14T05:16:03;5.68;;;1.40;;
47053;SDS011;32811;52.382;5.270;2023-06-14T05:18:30;3.35;;;1.55;;
47053;SDS011;32811;52.382;5.270;2023-06-14T05:20:56;7.80;;;1.45;;
47053;SDS011;32811;52.382;5.270;2023-06-14T05:23:23;10.63;;;3.13;;
47053;SDS011;32811;52.382;5.270;2023-06-14T05:25:50;4.40;;;1.30;;
47053;SDS011;32811;52.382;5.270;2023-06-14T05:28:16;5.95;;;1.80;;
47053;SDS011;32811;52.382;5.270;2023-06-14T05:30:43;5.38;;;2.08;;
47053;SDS011;32811;52.382;5.270;2023-06-14T05:33:10;1.50;;;1.17;;
47053;SDS011;32811;52.382;5.270;2023-06-14T05:35:37;3.92;;;1.05;;
47053;SDS011;32811;52.382;5.270;2023-06-14T05:38:04;3.38;;;1.40;;
47053;SDS011;32811;52.382;5.270;2023-06-14T05:40:31;4.95;;;1.20;;
47053;SDS011;32811;52.382;5.270;2023-06-14T05:42:58;3.40;;;1.30;;
47053;SDS011;32811;52.382;5.270;2023-06-14T05:45:25;2.38;;;1.20;;
47053;SDS011;32811;52.382;5.270;2023-06-14T05:47:52;5.18;;;1.30;;
47053;SDS011;32811;52.382;5.270;2023-06-14T05:50:20;5.25;;;1.67;;
47053;SDS011;32811;52.382;5.270;2023-06-14T05:52:47;5.13;;;1.58;;
47053;SDS011;32811;52.382;5.270;2023-06-14T05:55:16;3.90;;;1.27;;
47053;SDS011;32811;52.382;5.270;2023-06-14T05:57:43;3.28;;;1.60;;
47053;SDS011;32811;52.382;5.270;2023-06-14T06:00:10;5.63;;;1.30;;
47053;SDS011;32811;52.382;5.270;2023-06-14T06:02:37;2.97;;;1.50;;
47053;SDS011;32811;52.382;5.270;2023-06-14T06:05:04;7.35;;;1.80;;
47053;SDS011;32811;52.382;5.270;2023-06-14T06:07:32;4.38;;;1.50;;
47053;SDS011;32811;52.382;5.270;2023-06-14T06:10:01;10.90;;;1.95;;
47053;SDS011;32811;52.382;5.270;2023-06-14T06:12:28;3.53;;;1.50;;
47053;SDS011;32811;52.382;5.270;2023-06-14T06:14:55;7.30;;;1.67;;
47053;SDS011;32811;52.382;5.270;2023-06-14T06:17:22;3.47;;;1.30;;
47053;SDS011;32811;52.382;5.270;2023-06-14T06:19:48;6.35;;;1.50;;
47053;SDS011;32811;52.382;5.270;2023-06-14T06:22:15;8.07;;;1.63;;
47053;SDS011;32811;52.382;5.270;2023-06-14T06:24:43;4.95;;;1.70;;
47053;SDS011;32811;52.382;5.270;2023-06-14T06:27:11;4.68;;;1.65;;
47053;SDS011;32811;52.382;5.270;2023-06-14T06:29:38;5.40;;;1.50;;
47053;SDS011;32811;52.382;5.270;2023-06-14T06:32:05;4.55;;;1.50;;
47053;SDS011;32811;52.382;5.270;2023-06-14T06:34:32;2.75;;;1.40;;
47053;SDS011;32811;52.382;5.270;2023-06-14T06:36:59;4.57;;;2.00;;
47053;SDS011;32811;52.382;5.270;2023-06-14T06:39:26;4.20;;;1.52;;
47053;SDS011;32811;52.382;5.270;2023-06-14T06:41:52;4.03;;;1.75;;
47053;SDS011;32811;52.382;5.270;2023-06-14T06:44:19;4.18;;;1.60;;
47053;SDS011;32811;52.382;5.270;2023-06-14T06:46:46;4.32;;;1.50;;
47053;SDS011;32811;52.382;5.270;2023-06-14T06:49:12;2.17;;;1.58;;
47053;SDS011;32811;52.382;5.270;2023-06-14T06:51:41;4.57;;;1.60;;
47053;SDS011;32811;52.382;5.270;2023-06-14T06:54:11;9.98;;;1.20;;
47053;SDS011;32811;52.382;5.270;2023-06-14T06:56:38;7.75;;;1.13;;
47053;SDS011;32811;52.382;5.270;2023-06-14T06:59:04;4.20;;;1.20;;
47053;SDS011;32811;52.382;5.270;2023-06-14T07:01:31;7.45;;;1.48;;
47053;SDS011;32811;52.382;5.270;2023-06-14T07:04:03;5.05;;;1.33;;
47053;SDS011;32811;52.382;5.270;2023-06-14T07:06:29;5.97;;;1.40;;
47053;SDS011;32811;52.382;5.270;2023-06-14T07:08:56;3.28;;;1.27;;
47053;SDS011;32811;52.382;5.270;2023-06-14T07:11:27;6.55;;;1.42;;
47053;SDS011;32811;52.382;5.270;2023-06-14T07:13:54;2.03;;;1.08;;
47053;SDS011;32811;52.382;5.270;2023-06-14T07:16:21;2.47;;;1.33;;
47053;SDS011;32811;52.382;5.270;2023-06-14T07:18:48;2.83;;;1.02;;
47053;SDS011;32811;52.382;5.270;2023-06-14T07:21:15;8.95;;;2.15;;
47053;SDS011;32811;52.382;5.270;2023-06-14T07:23:41;6.20;;;1.55;;
47053;SDS011;32811;52.382;5.270;2023-06-14T07:26:08;3.15;;;1.27;;
47053;SDS011;32811;52.382;5.270;2023-06-14T07:28:35;11.80;;;1.90;;
47053;SDS011;32811;52.382;5.270;2023-06-14T07:31:02;3.60;;;1.30;;
47053;SDS011;32811;52.382;5.270;2023-06-14T07:33:28;6.28;;;1.50;;
47053;SDS011;32811;52.382;5.270;2023-06-14T07:35:55;6.25;;;1.40;;
47053;SDS011;32811;52.382;5.270;2023-06-14T07:38:22;2.33;;;1.10;;
47053;SDS011;32811;52.382;5.270;2023-06-14T07:40:49;3.53;;;1.42;;
47053;SDS011;32811;52.382;5.270;2023-06-14T07:43:15;4.07;;;1.10;;
47053;SDS011;32811;52.382;5.270;2023-06-14T07:45:42;5.50;;;1.40;;
47053;SDS011;32811;52.382;5.270;2023-06-14T07:50:55;3.17;;;1.20;;
47053;SDS011;32811;52.382;5.270;2023-06-14T07:53:21;2.45;;;1.15;;
47053;SDS011;32811;52.382;5.270;2023-06-14T07:55:48;4.13;;;1.13;;
47053;SDS011;32811;52.382;5.270;2023-06-14T07:58:19;2.65;;;1.10;;
47053;SDS011;32811;52.382;5.270;2023-06-14T08:00:46;3.75;;;0.90;;
47053;SDS011;32811;52.382;5.270;2023-06-14T08:03:13;3.78;;;1.17;;
47053;SDS011;32811;52.382;5.270;2023-06-14T08:05:40;1.70;;;0.90;;
47053;SDS011;32811;52.382;5.270;2023-06-14T08:08:07;2.15;;;1.10;;
47053;SDS011;32811;52.382;5.270;2023-06-14T08:10:33;3.15;;;1.20;;
47053;SDS011;32811;52.382;5.270;2023-06-14T08:13:00;2.35;;;1.10;;
47053;SDS011;32811;52.382;5.270;2023-06-14T08:15:27;7.43;;;1.33;;
47053;SDS011;32811;52.382;5.270;2023-06-14T08:17:53;3.10;;;0.85;;
47053;SDS011;32811;52.382;5.270;2023-06-14T08:20:20;7.40;;;1.20;;
47053;SDS011;32811;52.382;5.270;2023-06-14T08:22:47;7.70;;;0.95;;
47053;SDS011;32811;52.382;5.270;2023-06-14T08:25:14;2.80;;;0.70;;
47053;SDS011;32811;52.382;5.270;2023-06-14T08:27:41;1.38;;;0.73;;
47053;SDS011;32811;52.382;5.270;2023-06-14T08:30:08;3.30;;;0.90;;
47053;SDS011;32811;52.382;5.270;2023-06-14T08:32:36;1.50;;;0.88;;
47053;SDS011;32811;52.382;5.270;2023-06-14T08:35:03;7.53;;;1.35;;
47053;SDS011;32811;52.382;5.270;2023-06-14T08:37:31;4.88;;;0.90;;
47053;SDS011;32811;52.382;5.270;2023-06-14T08:40:00;4.35;;;0.90;;
47053;SDS011;32811;52.382;5.270;2023-06-14T08:42:29;5.18;;;0.93;;
47053;SDS011;32811;52.382;5.270;2023-06-14T08:44:58;2.65;;;0.70;;
47053;SDS011;32811;52.382;5.270;2023-06-14T08:47:26;1.55;;;0.80;;
47053;SDS011;32811;52.382;5.270;2023-06-14T08:49:55;5.05;;;0.60;;
47053;SDS011;32811;52.382;5.270;2023-06-14T08:52:24;4.10;;;1.05;;
47053;SDS011;32811;52.382;5.270;2023-06-14T08:54:56;3.33;;;0.80;;
47053;SDS011;32811;52.382;5.270;2023-06-14T08:57:23;1.45;;;0.75;;
47053;SDS011;32811;52.382;5.270;2023-06-14T08:59:51;2.50;;;1.00;;
47053;SDS011;32811;52.382;5.270;2023-06-14T09:02:20;3.05;;;0.88;;
47053;SDS011;32811;52.382;5.270;2023-06-14T09:04:48;1.90;;;0.90;;
47053;SDS011;32811;52.382;5.270;2023-06-14T09:07:18;2.25;;;0.75;;
47053;SDS011;32811;52.382;5.270;2023-06-14T09:09:44;4.55;;;0.70;;
47053;SDS011;32811;52.382;5.270;2023-06-14T09:12:31;3.65;;;0.82;;
47053;SDS011;32811;52.382;5.270;2023-06-14T09:14:58;2.60;;;0.82;;
47053;SDS011;32811;52.382;5.270;2023-06-14T09:17:24;2.00;;;0.85;;
47053;SDS011;32811;52.382;5.270;2023-06-14T09:19:51;2.13;;;0.80;;
47053;SDS011;32811;52.382;5.270;2023-06-14T09:22:21;2.83;;;0.60;;
47053;SDS011;32811;52.382;5.270;2023-06-14T09:24:48;2.63;;;0.93;;
47053;SDS011;32811;52.382;5.270;2023-06-14T09:27:15;5.93;;;0.60;;
47053;SDS011;32811;52.382;5.270;2023-06-14T09:29:42;3.95;;;0.88;;
47053;SDS011;32811;52.382;5.270;2023-06-14T09:32:08;2.05;;;0.70;;
47053;SDS011;32811;52.382;5.270;2023-06-14T09:34:35;9.38;;;1.30;;
47053;SDS011;32811;52.382;5.270;2023-06-14T09:37:03;8.65;;;1.48;;
47053;SDS011;32811;52.382;5.270;2023-06-14T09:39:30;24.67;;;2.65;;
47053;SDS011;32811;52.382;5.270;2023-06-14T09:41:57;7.28;;;1.00;;
47053;SDS011;32811;52.382;5.270;2023-06-14T09:44:24;3.47;;;0.70;;
47053;SDS011;32811;52.382;5.270;2023-06-14T09:46:55;2.03;;;0.70;;
47053;SDS011;32811;52.382;5.270;2023-06-14T09:49:22;4.40;;;1.00;;
47053;SDS011;32811;52.382;5.270;2023-06-14T09:51:50;2.78;;;1.00;;
47053;SDS011;32811;52.382;5.270;2023-06-14T09:54:20;3.33;;;0.82;;
47053;SDS011;32811;52.382;5.270;2023-06-14T09:56:51;2.67;;;1.00;;
47053;SDS011;32811;52.382;5.270;2023-06-14T09:59:19;1.27;;;0.93;;
47053;SDS011;32811;52.382;5.270;2023-06-14T10:01:51;1.17;;;0.80;;
47053;SDS011;32811;52.382;5.270;2023-06-14T10:04:21;4.95;;;0.90;;
47053;SDS011;32811;52.382;5.270;2023-06-14T10:06:48;1.75;;;0.75;;
47053;SDS011;32811;52.382;5.270;2023-06-14T10:09:18;1.55;;;0.70;;
47053;SDS011;32811;52.382;5.270;2023-06-14T10:11:46;4.43;;;0.80;;
47053;SDS011;32811;52.382;5.270;2023-06-14T10:14:13;3.55;;;0.60;;
47053;SDS011;32811;52.382;5.270;2023-06-14T10:19:54;3.65;;;0.70;;
47053;SDS011;32811;52.382;5.270;2023-06-14T10:22:32;1.40;;;0.80;;
47053;SDS011;32811;52.382;5.270;2023-06-14T10:25:02;3.75;;;1.00;;
47053;SDS011;32811;52.382;5.270;2023-06-14T10:27:34;5.82;;;0.75;;
47053;SDS011;32811;52.382;5.270;2023-06-14T10:30:02;4.00;;;1.00;;
47053;SDS011;32811;52.382;5.270;2023-06-14T10:32:29;2.38;;;1.17;;
47053;SDS011;32811;52.382;5.270;2023-06-14T10:37:31;5.78;;;0.90;;
47053;SDS011;32811;52.382;5.270;2023-06-14T10:39:57;4.32;;;0.90;;
47053;SDS011;32811;52.382;5.270;2023-06-14T10:42:27;6.00;;;0.93;;
47053;SDS011;32811;52.382;5.270;2023-06-14T10:44:58;1.38;;;1.00;;
47053;SDS011;32811;52.382;5.270;2023-06-14T10:49:58;2.85;;;0.75;;
47053;SDS011;32811;52.382;5.270;2023-06-14T10:52:36;4.13;;;0.63;;
47053;SDS011;32811;52.382;5.270;2023-06-14T10:55:06;3.90;;;0.80;;
47053;SDS011;32811;52.382;5.270;2023-06-14T10:57:39;4.35;;;0.50;;
47053;SDS011;32811;52.382;5.270;2023-06-14T11:00:20;3.05;;;1.08;;
47053;SDS011;32811;52.382;5.270;2023-06-14T11:11:11;5.13;;;1.10;;
47053;SDS011;32811;52.382;5.270;2023-06-14T11:13:41;2.13;;;0.70;;
47053;SDS011;32811;52.382;5.270;2023-06-14T11:16:12;5.50;;;0.70;;
47053;SDS011;32811;52.382;5.270;2023-06-14T11:18:43;6.10;;;1.25;;
47053;SDS011;32811;52.382;5.270;2023-06-14T11:21:11;1.35;;;0.52;;
47053;SDS011;32811;52.382;5.270;2023-06-14T11:23:42;7.70;;;0.80;;
47053;SDS011;32811;52.382;5.270;2023-06-14T11:26:14;1.90;;;0.63;;
47053;SDS011;32811;52.382;5.270;2023-06-14T11:28:41;3.67;;;0.95;;
47053;SDS011;32811;52.382;5.270;2023-06-14T11:31:08;1.02;;;0.70;;
47053;SDS011;32811;52.382;5.270;2023-06-14T11:33:35;2.80;;;0.60;;
47053;SDS011;32811;52.382;5.270;2023-06-14T11:36:02;0.85;;;0.40;;
47053;SDS011;32811;52.382;5.270;2023-06-14T11:38:34;0.77;;;0.50;;
47053;SDS011;32811;52.382;5.270;2023-06-14T11:41:02;2.35;;;0.93;;
47053;SDS011;32811;52.382;5.270;2023-06-14T11:43:29;2.28;;;0.60;;
47053;SDS011;32811;52.382;5.270;2023-06-14T11:45:58;2.75;;;0.52;;
47053;SDS011;32811;52.382;5.270;2023-06-14T11:48:40;0.88;;;0.47;;
47053;SDS011;32811;52.382;5.270;2023-06-14T11:53:34;3.17;;;0.70;;
47053;SDS011;32811;52.382;5.270;2023-06-14T11:56:02;3.28;;;0.88;;
47053;SDS011;32811;52.382;5.270;2023-06-14T11:58:29;1.52;;;0.60;;
47053;SDS011;32811;52.382;5.270;2023-06-14T12:00:56;5.65;;;1.40;;
47053;SDS011;32811;52.382;5.270;2023-06-14T12:03:24;2.63;;;0.95;;
47053;SDS011;32811;52.382;5.270;2023-06-14T12:06:07;5.03;;;1.40;;
47053;SDS011;32811;52.382;5.270;2023-06-14T12:08:38;3.70;;;0.70;;
47053;SDS011;32811;52.382;5.270;2023-06-14T12:11:07;1.73;;;0.70;;
47053;SDS011;32811;52.382;5.270;2023-06-14T12:13:38;1.67;;;0.80;;
47053;SDS011;32811;52.382;5.270;2023-06-14T12:16:07;4.97;;;0.90;;
47053;SDS011;32811;52.382;5.270;2023-06-14T12:18:35;2.08;;;0.70;;
47053;SDS011;32811;52.382;5.270;2023-06-14T12:21:03;1.13;;;0.55;;
47053;SDS011;32811;52.382;5.270;2023-06-14T12:23:47;8.13;;;1.00;;
47053;SDS011;32811;52.382;5.270;2023-06-14T12:26:15;3.42;;;0.70;;
47053;SDS011;32811;52.382;5.270;2023-06-14T12:28:47;2.88;;;0.60;;
47053;SDS011;32811;52.382;5.270;2023-06-14T12:31:15;4.30;;;0.80;;
47053;SDS011;32811;52.382;5.270;2023-06-14T12:33:42;3.22;;;1.70;;
47053;SDS011;32811;52.382;5.270;2023-06-14T12:36:12;3.22;;;0.65;;
47053;SDS011;32811;52.382;5.270;2023-06-14T12:38:39;2.80;;;0.70;;
47053;SDS011;32811;52.382;5.270;2023-06-14T12:41:05;1.52;;;0.60;;
47053;SDS011;32811;52.382;5.270;2023-06-14T12:43:32;1.83;;;0.77;;
47053;SDS011;32811;52.382;5.270;2023-06-14T12:45:59;3.58;;;0.77;;
47053;SDS011;32811;52.382;5.270;2023-06-14T12:48:26;3.65;;;1.33;;
47053;SDS011;32811;52.382;5.270;2023-06-14T12:50:57;6.40;;;1.33;;
47053;SDS011;32811;52.382;5.270;2023-06-14T12:53:24;3.22;;;0.88;;
47053;SDS011;32811;52.382;5.270;2023-06-14T12:55:51;5.93;;;0.80;;
47053;SDS011;32811;52.382;5.270;2023-06-14T12:58:18;1.73;;;0.57;;
47053;SDS011;32811;52.382;5.270;2023-06-14T13:00:46;1.08;;;0.95;;
47053;SDS011;32811;52.382;5.270;2023-06-14T13:03:14;1.38;;;0.90;;
47053;SDS011;32811;52.382;5.270;2023-06-14T13:05:41;3.85;;;0.77;;
47053;SDS011;32811;52.382;5.270;2023-06-14T13:08:09;4.03;;;0.70;;
47053;SDS011;32811;52.382;5.270;2023-06-14T13:10:35;4.75;;;1.08;;
47053;SDS011;32811;52.382;5.270;2023-06-14T13:13:02;1.13;;;0.70;;
47053;SDS011;32811;52.382;5.270;2023-06-14T13:15:29;7.07;;;0.68;;
47053;SDS011;32811;52.382;5.270;2023-06-14T13:17:56;1.63;;;0.70;;
47053;SDS011;32811;52.382;5.270;2023-06-14T13:20:22;1.13;;;0.70;;
47053;SDS011;32811;52.382;5.270;2023-06-14T13:22:50;1.10;;;0.60;;
47053;SDS011;32811;52.382;5.270;2023-06-14T13:25:16;1.60;;;0.60;;
47053;SDS011;32811;52.382;5.270;2023-06-14T13:27:43;0.75;;;0.60;;
47053;SDS011;32811;52.382;5.270;2023-06-14T13:30:10;1.67;;;0.73;;
47053;SDS011;32811;52.382;5.270;2023-06-14T13:32:37;4.85;;;0.80;;
47053;SDS011;32811;52.382;5.270;2023-06-14T13:35:04;1.75;;;1.15;;
47053;SDS011;32811;52.382;5.270;2023-06-14T13:37:31;2.20;;;0.50;;
47053;SDS011;32811;52.382;5.270;2023-06-14T13:39:57;1.38;;;0.60;;
47053;SDS011;32811;52.382;5.270;2023-06-14T13:42:24;5.20;;;1.13;;
47053;SDS011;32811;52.382;5.270;2023-06-14T13:44:51;3.53;;;0.85;;
47053;SDS011;32811;52.382;5.270;2023-06-14T13:47:19;5.32;;;0.70;;
47053;SDS011;32811;52.382;5.270;2023-06-14T13:49:45;4.75;;;0.65;;
47053;SDS011;32811;52.382;5.270;2023-06-14T13:52:13;1.85;;;0.85;;
47053;SDS011;32811;52.382;5.270;2023-06-14T13:54:40;1.70;;;0.50;;
47053;SDS011;32811;52.382;5.270;2023-06-14T13:57:06;2.50;;;1.13;;
47053;SDS011;32811;52.382;5.270;2023-06-14T13:59:33;1.00;;;0.70;;
47053;SDS011;32811;52.382;5.270;2023-06-14T14:02:01;3.90;;;0.85;;
47053;SDS011;32811;52.382;5.270;2023-06-14T14:04:28;6.70;;;0.90;;
47053;SDS011;32811;52.382;5.270;2023-06-14T14:06:55;3.22;;;0.73;;
47053;SDS011;32811;52.382;5.270;2023-06-14T14:09:21;3.13;;;0.80;;
47053;SDS011;32811;52.382;5.270;2023-06-14T14:11:48;3.72;;;0.70;;
47053;SDS011;32811;52.382;5.270;2023-06-14T14:14:15;3.90;;;1.35;;
47053;SDS011;32811;52.382;5.270;2023-06-14T14:16:41;10.50;;;0.60;;
47053;SDS011;32811;52.382;5.270;2023-06-14T14:19:08;1.23;;;0.60;;
47053;SDS011;32811;52.382;5.270;2023-06-14T14:21:35;1.67;;;0.70;;
47053;SDS011;32811;52.382;5.270;2023-06-14T14:24:02;5.07;;;0.70;;
47053;SDS011;32811;52.382;5.270;2023-06-14T14:26:29;2.22;;;0.60;;
47053;SDS011;32811;52.382;5.270;2023-06-14T14:28:55;4.57;;;0.63;;
47053;SDS011;32811;52.382;5.270;2023-06-14T14:31:22;2.17;;;1.00;;
47053;SDS011;32811;52.382;5.270;2023-06-14T14:33:49;2.95;;;0.50;;
47053;SDS011;32811;52.382;5.270;2023-06-14T14:36:15;2.05;;;0.80;;
47053;SDS011;32811;52.382;5.270;2023-06-14T14:38:42;2.30;;;0.70;;
47053;SDS011;32811;52.382;5.270;2023-06-14T14:41:09;2.00;;;0.70;;
47053;SDS011;32811;52.382;5.270;2023-06-14T14:43:35;1.13;;;0.65;;
47053;SDS011;32811;52.382;5.270;2023-06-14T14:46:02;5.55;;;0.80;;
47053;SDS011;32811;52.382;5.270;2023-06-14T14:48:28;1.58;;;0.60;;
47053;SDS011;32811;52.382;5.270;2023-06-14T14:50:55;4.32;;;0.60;;
47053;SDS011;32811;52.382;5.270;2023-06-14T14:53:22;2.00;;;0.60;;
47053;SDS011;32811;52.382;5.270;2023-06-14T14:55:49;9.32;;;0.75;;
47053;SDS011;32811;52.382;5.270;2023-06-14T14:58:15;2.55;;;0.52;;
47053;SDS011;32811;52.382;5.270;2023-06-14T15:00:44;1.00;;;0.55;;
47053;SDS011;32811;52.382;5.270;2023-06-14T15:03:11;4.35;;;0.60;;
47053;SDS011;32811;52.382;5.270;2023-06-14T15:05:39;2.70;;;0.70;;
47053;SDS011;32811;52.382;5.270;2023-06-14T15:08:06;2.15;;;0.70;;
47053;SDS011;32811;52.382;5.270;2023-06-14T15:10:39;1.50;;;0.60;;
47053;SDS011;32811;52.382;5.270;2023-06-14T15:13:07;7.22;;;0.70;;
47053;SDS011;32811;52.382;5.270;2023-06-14T15:15:36;1.38;;;0.52;;
47053;SDS011;32811;52.382;5.270;2023-06-14T15:18:03;1.02;;;0.63;;
47053;SDS011;32811;52.382;5.270;2023-06-14T15:20:30;1.85;;;1.50;;